createdAt,value
2018-07-01T12:53:19.795Z,25.03
2018-07-01T12:54:19.700Z,25.27
2018-07-01T12:56:12.497Z,25.36
2018-07-01T12:57:12.407Z,25.46
2018-07-01T12:59:05.244Z,25.74
2018-07-01T13:00:05.132Z,25.48
2018-07-01T13:01:58.016Z,24.99
2018-07-01T13:02:57.906Z,25.06
2018-07-01T13:04:50.722Z,25.26
2018-07-01T13:05:50.629Z,25.16
2018-07-01T13:07:46.624Z,25.53
2018-07-01T13:08:47.011Z,25.66
2018-07-01T13:10:40.344Z,25.18
2018-07-01T13:11:40.221Z,24.91
2018-07-01T13:13:33.078Z,24.78
2018-07-01T13:14:32.979Z,24.71
2018-07-01T13:16:25.852Z,24.25
2018-07-01T13:17:25.827Z,24.45
2018-07-01T13:19:18.573Z,25.22
2018-07-01T13:20:18.495Z,25.36
2018-07-01T13:22:11.641Z,25.52
2018-07-01T13:23:11.241Z,25.67
2018-07-01T13:25:04.154Z,25.74
2018-07-01T13:26:03.980Z,25.71
2018-07-01T13:27:56.799Z,25.88
2018-07-01T13:28:56.722Z,25.93
2018-07-01T13:30:49.571Z,25.71
2018-07-01T13:31:49.492Z,25.08
2018-07-01T13:33:42.303Z,24.18
2018-07-01T13:34:42.216Z,23.74
2018-07-01T13:36:35.079Z,23.61
2018-07-01T13:37:34.980Z,23.45
2018-07-01T13:39:27.803Z,24.10
2018-07-01T13:40:27.719Z,24.53
2018-07-01T13:42:20.576Z,25.28
2018-07-01T13:43:20.517Z,25.43
2018-07-01T13:45:13.346Z,25.66
2018-07-01T13:46:13.227Z,25.85
2018-07-01T13:48:06.081Z,25.83
2018-07-01T13:49:05.989Z,25.68
2018-07-01T13:50:58.894Z,25.61
2018-07-01T13:51:58.752Z,25.75
2018-07-01T13:53:51.571Z,25.00
2018-07-01T13:54:51.482Z,24.66
2018-07-01T13:56:44.376Z,24.37
2018-07-01T13:57:44.240Z,24.04
2018-07-01T13:59:37.588Z,24.03
2018-07-01T14:00:37.498Z,24.53
2018-07-01T14:02:30.370Z,25.26
2018-07-01T14:03:30.234Z,25.41
2018-07-01T14:05:23.108Z,25.23
2018-07-01T14:06:23.218Z,25.21
2018-07-01T14:08:16.524Z,25.70
2018-07-01T14:09:15.754Z,25.90
2018-07-01T14:11:21.007Z,26.07
2018-07-01T14:12:16.987Z,26.12
2018-07-01T14:14:10.934Z,26.39
2018-07-01T14:15:10.755Z,26.76
2018-07-01T14:17:03.592Z,27.34
2018-07-01T14:18:03.499Z,27.34
2018-07-01T14:19:56.403Z,27.70
2018-07-01T14:20:56.248Z,27.75
2018-07-01T14:22:49.081Z,28.03
2018-07-01T14:23:48.998Z,28.07
2018-07-01T14:25:41.841Z,27.42
2018-07-01T14:26:41.761Z,26.83
2018-07-01T14:28:34.604Z,25.98
2018-07-01T14:29:34.500Z,25.48
2018-07-01T14:31:27.734Z,25.09
2018-07-01T14:32:27.657Z,24.65
2018-07-01T14:34:20.542Z,24.58
2018-07-01T14:35:20.402Z,24.75
2018-07-01T14:37:13.344Z,25.85
2018-07-01T14:38:13.266Z,26.24
2018-07-01T14:40:06.656Z,26.85
2018-07-01T14:41:06.429Z,27.01
2018-07-01T14:42:59.248Z,26.85
2018-07-01T14:43:59.186Z,27.16
2018-07-01T14:45:52.061Z,26.23
2018-07-01T14:46:51.913Z,25.58
2018-07-01T14:48:45.295Z,25.63
2018-07-01T14:49:45.178Z,25.77
2018-07-01T14:51:38.012Z,26.01
2018-07-01T14:52:37.934Z,26.31
2018-07-01T14:54:31.792Z,26.89
2018-07-01T14:55:31.192Z,27.19
2018-07-01T14:57:24.036Z,27.53
2018-07-01T14:58:23.958Z,27.82
2018-07-01T15:00:16.791Z,27.98
2018-07-01T15:01:16.726Z,27.79
2018-07-01T15:03:09.524Z,27.10
2018-07-01T15:04:09.460Z,26.63
2018-07-01T15:06:02.330Z,26.71
2018-07-01T15:07:02.216Z,27.01
2018-07-01T15:08:55.039Z,26.79
2018-07-01T15:09:54.933Z,26.94
2018-07-01T15:11:47.787Z,27.42
2018-07-01T15:12:47.696Z,27.52
2018-07-01T15:14:40.582Z,27.98
2018-07-01T15:15:40.440Z,28.32
2018-07-01T15:17:33.273Z,28.66
2018-07-01T15:18:33.187Z,29.03
2018-07-01T15:20:26.060Z,28.94
2018-07-01T15:21:26.028Z,29.29
2018-07-01T15:23:19.324Z,29.40
2018-07-01T15:24:19.193Z,27.97
2018-07-01T15:26:12.081Z,26.80
2018-07-01T15:27:11.970Z,26.31
2018-07-01T15:29:04.806Z,26.38
2018-07-01T15:30:04.764Z,25.85
2018-07-01T15:31:57.576Z,25.78
2018-07-01T15:32:57.516Z,25.73
2018-07-01T15:34:50.819Z,26.65
2018-07-01T15:35:50.196Z,27.12
2018-07-01T15:37:43.067Z,28.40
2018-07-01T15:38:43.155Z,29.09
2018-07-01T15:40:35.811Z,29.04
2018-07-01T15:41:35.691Z,29.22
2018-07-01T15:43:28.566Z,30.21
2018-07-01T15:44:28.451Z,30.39
2018-07-01T15:46:21.297Z,30.82
2018-07-01T15:47:21.224Z,31.08
2018-07-01T15:49:14.142Z,29.81
2018-07-01T15:50:13.957Z,28.50
2018-07-01T15:52:07.307Z,27.66
2018-07-01T15:53:07.220Z,27.31
2018-07-01T15:55:00.131Z,28.07
2018-07-01T15:55:59.955Z,28.90
2018-07-01T15:57:52.803Z,28.68
2018-07-01T15:58:52.709Z,28.47
2018-07-01T16:00:46.113Z,27.66
2018-07-01T16:01:45.471Z,27.30
2018-07-01T16:03:38.310Z,26.76
2018-07-01T16:04:38.244Z,27.45
2018-07-01T16:06:31.053Z,28.91
2018-07-01T16:07:30.954Z,29.70
2018-07-01T16:09:23.797Z,31.15
2018-07-01T16:10:23.732Z,31.81
2018-07-01T16:12:16.602Z,32.48
2018-07-01T16:13:16.622Z,32.65
2018-07-01T16:15:09.303Z,32.82
2018-07-01T16:16:09.211Z,32.73
2018-07-01T16:18:02.130Z,32.36
2018-07-01T16:19:01.977Z,31.78
2018-07-01T16:20:55.301Z,31.75
2018-07-01T16:21:55.261Z,32.13
2018-07-01T16:23:48.080Z,32.73
2018-07-01T16:24:48.031Z,32.99
2018-07-01T16:26:40.858Z,33.33
2018-07-01T16:27:40.726Z,33.10
2018-07-01T16:29:33.586Z,31.44
2018-07-01T16:30:33.466Z,30.97
2018-07-01T16:32:26.297Z,31.45
2018-07-01T16:33:26.214Z,31.82
2018-07-01T16:35:19.089Z,32.33
2018-07-01T16:36:18.983Z,32.68
2018-07-01T16:38:11.841Z,32.79
2018-07-01T16:39:11.762Z,32.76
2018-07-01T16:41:04.643Z,32.92
2018-07-01T16:42:04.475Z,31.87
2018-07-01T16:43:57.321Z,29.80
2018-07-01T16:44:57.233Z,30.32
2018-07-01T16:46:50.040Z,30.48
2018-07-01T16:47:49.988Z,29.52
2018-07-01T16:49:42.812Z,27.49
2018-07-01T16:50:42.884Z,27.61
2018-07-01T16:52:35.734Z,27.70
2018-07-01T16:53:35.584Z,27.80
2018-07-01T16:55:28.933Z,29.06
2018-07-01T16:56:28.892Z,29.68
2018-07-01T16:58:21.773Z,30.85
2018-07-01T16:59:21.673Z,31.51
2018-07-01T17:01:14.537Z,32.35
2018-07-01T17:02:14.468Z,32.72
2018-07-01T17:04:07.311Z,33.14
2018-07-01T17:05:07.255Z,33.12
2018-07-01T17:07:00.031Z,33.81
2018-07-01T17:07:59.953Z,34.08
2018-07-01T17:09:52.816Z,30.85
2018-07-01T17:10:52.686Z,29.95
2018-07-01T17:12:45.546Z,30.73
2018-07-01T17:13:45.494Z,31.46
2018-07-01T17:15:38.287Z,32.04
2018-07-01T17:16:38.185Z,31.89
2018-07-01T17:18:31.116Z,30.35
2018-07-01T17:19:30.935Z,29.25
2018-07-01T17:21:24.283Z,28.27
2018-07-01T17:22:24.213Z,27.95
2018-07-01T17:24:17.143Z,27.44
2018-07-01T17:25:17.063Z,27.57
2018-07-01T17:27:10.800Z,27.83
2018-07-01T17:28:10.742Z,28.68
2018-07-01T17:30:03.675Z,30.51
2018-07-01T17:31:03.485Z,31.15
2018-07-01T17:32:56.359Z,32.46
2018-07-01T17:33:56.214Z,32.83
2018-07-01T17:35:49.641Z,33.36
2018-07-01T17:36:49.500Z,33.32
2018-07-01T17:38:42.323Z,33.42
2018-07-01T17:39:42.307Z,33.60
2018-07-01T17:41:35.121Z,33.86
2018-07-01T17:42:35.103Z,34.18
2018-07-01T17:44:27.926Z,34.28
2018-07-01T17:45:27.764Z,34.18
2018-07-01T17:47:20.619Z,34.15
2018-07-01T17:48:20.527Z,34.25
2018-07-01T17:50:13.492Z,34.16
2018-07-01T17:51:13.269Z,34.30
2018-07-01T17:53:06.100Z,34.26
2018-07-01T17:54:05.989Z,33.88
2018-07-01T17:55:58.829Z,34.08
2018-07-01T17:56:58.743Z,33.79
2018-07-01T17:58:51.576Z,33.29
2018-07-01T17:59:51.581Z,32.99
2018-07-01T18:01:44.344Z,32.53
2018-07-01T18:02:44.241Z,32.63
2018-07-01T18:04:37.082Z,33.42
2018-07-01T18:05:36.989Z,33.60
2018-07-01T18:07:29.898Z,33.48
2018-07-01T18:08:29.853Z,33.12
2018-07-01T18:10:22.594Z,32.92
2018-07-01T18:11:22.495Z,32.69
2018-07-01T18:13:15.379Z,32.02
2018-07-01T18:14:15.246Z,30.97
2018-07-01T18:16:08.118Z,29.13
2018-07-01T18:17:08.032Z,28.00
2018-07-01T18:19:00.855Z,26.83
2018-07-01T18:20:00.732Z,26.53
2018-07-01T18:23:27.412Z,25.77
2018-07-01T18:25:01.540Z,24.89
2018-07-01T18:25:46.411Z,24.55
2018-07-01T18:27:40.136Z,23.98
2018-07-01T18:28:48.665Z,23.73
2018-07-01T18:30:31.827Z,23.42
2018-07-01T18:31:31.744Z,23.48
2018-07-01T18:33:24.615Z,23.34
2018-07-01T18:34:24.509Z,23.25
2018-07-01T18:36:17.310Z,23.06
2018-07-01T18:37:17.227Z,22.95
2018-07-01T18:39:10.598Z,22.89
2018-07-01T18:40:10.531Z,22.74
2018-07-01T18:42:03.336Z,22.68
2018-07-01T18:43:03.245Z,22.70
2018-07-01T18:44:56.080Z,22.88
2018-07-01T18:45:55.975Z,22.77
2018-07-01T18:47:48.826Z,22.59
2018-07-01T18:48:48.756Z,22.51
2018-07-01T18:50:41.569Z,22.48
2018-07-01T18:51:41.488Z,22.38
2018-07-01T18:53:34.299Z,22.33
2018-07-01T18:54:34.241Z,22.27
2018-07-01T18:56:27.077Z,22.21
2018-07-01T18:57:26.986Z,22.19
2018-07-01T18:59:19.825Z,22.19
2018-07-01T19:00:19.735Z,22.16
2018-07-01T19:02:12.560Z,22.03
2018-07-01T19:03:12.479Z,22.06
2018-07-01T19:05:05.347Z,21.80
2018-07-01T19:06:05.236Z,21.82
2018-07-01T19:07:58.071Z,21.80
2018-07-01T19:08:57.975Z,21.71
2018-07-01T19:10:50.812Z,21.48
2018-07-01T19:11:50.724Z,21.37
2018-07-01T19:13:43.551Z,21.18
2018-07-01T19:14:43.469Z,21.14
2018-07-01T19:16:36.332Z,21.01
2018-07-01T19:17:36.245Z,21.01
2018-07-01T19:19:29.068Z,20.83
2018-07-01T19:20:28.966Z,20.74
2018-07-01T19:22:21.797Z,20.79
2018-07-01T19:23:21.727Z,20.77
2018-07-01T19:25:15.089Z,20.75
2018-07-01T19:26:14.970Z,20.68
2018-07-01T19:28:07.803Z,20.64
2018-07-01T19:29:07.722Z,20.63
2018-07-01T19:31:00.604Z,20.58
2018-07-01T19:32:00.472Z,20.53
2018-07-01T19:33:53.305Z,20.41
2018-07-01T19:34:53.229Z,20.32
2018-07-01T19:36:46.069Z,20.18
2018-07-01T19:37:45.972Z,20.04
2018-07-01T19:39:38.834Z,19.94
2018-07-01T19:40:38.761Z,19.92
2018-07-01T19:42:31.696Z,19.68
2018-07-01T19:43:32.919Z,19.53
2018-07-01T19:45:24.353Z,19.34
2018-07-01T19:46:24.274Z,19.22
2018-07-01T19:48:17.056Z,19.09
2018-07-01T19:49:16.993Z,19.05
2018-07-01T19:51:09.834Z,18.85
2018-07-01T19:52:09.805Z,18.85
2018-07-01T19:54:02.543Z,18.67
2018-07-01T19:55:02.457Z,18.64
2018-07-01T19:56:55.353Z,18.45
2018-07-01T19:57:55.280Z,18.36
2018-07-01T19:59:48.072Z,18.31
2018-07-01T20:00:48.001Z,18.21
2018-07-01T20:02:40.824Z,18.09
2018-07-01T20:03:40.708Z,17.99
2018-07-01T20:05:33.585Z,17.94
2018-07-01T20:06:34.069Z,17.93
2018-07-01T20:08:26.311Z,17.69
2018-07-01T20:09:26.209Z,17.72
2018-07-01T20:11:19.088Z,17.50
2018-07-01T20:12:18.961Z,17.57
2018-07-01T20:14:11.908Z,17.43
2018-07-01T20:15:11.807Z,17.31
2018-07-01T20:17:04.756Z,17.22
2018-07-01T20:18:04.682Z,17.28
2018-07-01T20:19:58.012Z,17.13
2018-07-01T20:20:57.530Z,17.13
2018-07-01T20:22:50.371Z,17.04
2018-07-01T20:23:50.280Z,17.04
2018-07-01T20:25:43.109Z,17.09
2018-07-01T20:26:43.008Z,17.01
2018-07-01T20:28:35.873Z,17.02
2018-07-01T20:29:35.767Z,16.88
2018-07-01T20:31:28.627Z,16.77
2018-07-01T20:32:28.510Z,16.87
2018-07-01T20:34:21.364Z,16.74
2018-07-01T20:35:21.254Z,16.76
2018-07-01T20:37:14.118Z,16.69
2018-07-01T20:38:14.019Z,16.58
2018-07-01T20:40:06.881Z,16.57
2018-07-01T20:41:06.758Z,16.54
2018-07-01T20:42:59.622Z,16.49
2018-07-01T20:44:00.372Z,16.42
2018-07-01T20:45:52.382Z,16.34
2018-07-01T20:46:52.254Z,16.33
2018-07-01T20:48:45.186Z,16.22
2018-07-01T20:49:45.077Z,16.24
2018-07-01T20:51:37.878Z,16.21
2018-07-01T20:52:37.761Z,16.13
2018-07-01T20:54:30.596Z,16.14
2018-07-01T20:55:30.501Z,16.08
2018-07-01T20:57:23.388Z,15.88
2018-07-01T20:58:23.279Z,15.84
2018-07-01T21:00:16.133Z,15.78
2018-07-01T21:01:16.089Z,15.76
2018-07-01T21:03:08.883Z,15.62
2018-07-01T21:04:08.747Z,15.65
2018-07-01T21:06:02.128Z,15.52
2018-07-01T21:07:01.539Z,15.50
2018-07-01T21:08:54.370Z,15.54
2018-07-01T21:09:54.263Z,15.44
2018-07-01T21:11:47.175Z,15.38
2018-07-01T21:12:47.089Z,15.36
2018-07-01T21:14:39.865Z,15.35
2018-07-01T21:15:39.766Z,15.27
2018-07-01T21:17:32.616Z,15.19
2018-07-01T21:18:32.520Z,15.15
2018-07-01T21:20:25.485Z,15.14
2018-07-01T21:21:25.366Z,15.05
2018-07-01T21:23:18.196Z,15.01
2018-07-01T21:24:18.107Z,14.99
2018-07-01T21:26:10.970Z,14.87
2018-07-01T21:27:10.854Z,14.87
2018-07-01T21:29:03.719Z,14.86
2018-07-01T21:30:03.599Z,14.82
2018-07-01T21:31:56.441Z,14.79
2018-07-01T21:32:56.341Z,14.77
2018-07-01T21:34:49.198Z,14.83
2018-07-01T21:35:49.094Z,14.69
2018-07-01T21:37:41.986Z,14.64
2018-07-01T21:38:41.848Z,14.58
2018-07-01T21:40:34.632Z,14.55
2018-07-01T21:41:34.496Z,14.51
2018-07-01T21:43:27.340Z,14.45
2018-07-01T21:44:27.319Z,14.45
2018-07-01T21:46:20.198Z,14.31
2018-07-01T21:47:20.142Z,14.37
2018-07-01T21:49:12.964Z,14.37
2018-07-01T21:50:12.868Z,14.37
2018-07-01T21:52:05.722Z,14.34
2018-07-01T21:53:05.634Z,14.38
2018-07-01T21:54:58.972Z,14.37
2018-07-01T21:55:58.866Z,14.33
2018-07-01T21:57:51.705Z,14.26
2018-07-01T21:58:52.114Z,14.21
2018-07-01T22:00:44.990Z,14.15
2018-07-01T22:01:44.380Z,14.16
2018-07-01T22:03:37.770Z,14.18
2018-07-01T22:04:37.127Z,14.11
2018-07-01T22:06:29.975Z,14.12
2018-07-01T22:07:29.848Z,13.97
2018-07-01T22:09:22.605Z,13.97
2018-07-01T22:10:22.506Z,13.94
2018-07-01T22:12:15.386Z,13.88
2018-07-01T22:13:15.266Z,13.88
2018-07-01T22:15:08.009Z,13.91
2018-07-01T22:16:07.912Z,13.86
2018-07-01T22:18:01.172Z,13.83
2018-07-01T22:19:01.077Z,13.90
2018-07-01T22:20:53.815Z,14.00
2018-07-01T22:21:53.744Z,13.91
2018-07-01T22:23:46.577Z,14.11
2018-07-01T22:24:46.450Z,13.98
2018-07-01T22:26:39.206Z,13.94
2018-07-01T22:27:39.115Z,13.98
2018-07-01T22:29:31.952Z,13.91
2018-07-01T22:30:31.846Z,13.91
2018-07-01T22:32:24.741Z,13.85
2018-07-01T22:33:24.597Z,13.79
2018-07-01T22:35:17.476Z,13.65
2018-07-01T22:36:17.857Z,13.68
2018-07-01T22:38:10.243Z,13.71
2018-07-01T22:39:10.104Z,13.65
2018-07-01T22:41:02.981Z,13.58
2018-07-01T22:42:02.862Z,13.51
2018-07-01T22:43:55.727Z,13.55
2018-07-01T22:44:55.611Z,13.54
2018-07-01T22:46:48.467Z,13.54
2018-07-01T22:47:48.344Z,13.46
2018-07-01T22:49:41.105Z,13.39
2018-07-01T22:50:41.001Z,13.29
2018-07-01T22:52:33.845Z,13.35
2018-07-01T22:53:33.759Z,13.26
2018-07-01T22:55:26.622Z,13.30
2018-07-01T22:56:26.393Z,13.23
2018-07-01T22:58:19.273Z,13.24
2018-07-01T22:59:19.153Z,13.27
2018-07-01T23:01:11.999Z,13.36
2018-07-01T23:02:11.926Z,13.29
2018-07-01T23:04:04.663Z,13.32
2018-07-01T23:05:04.762Z,13.27
2018-07-01T23:06:57.476Z,13.30
2018-07-01T23:07:57.184Z,13.24
2018-07-01T23:09:50.039Z,13.29
2018-07-01T23:10:49.932Z,13.29
2018-07-01T23:12:42.917Z,13.06
2018-07-01T23:13:42.700Z,13.11
2018-07-01T23:15:35.620Z,13.06
2018-07-01T23:16:35.433Z,13.13
2018-07-01T23:18:28.172Z,13.11
2018-07-01T23:19:28.086Z,13.05
2018-07-01T23:21:20.991Z,13.14
2018-07-01T23:22:20.858Z,13.19
2018-07-01T23:24:13.706Z,13.13
2018-07-01T23:25:13.665Z,13.17
2018-07-01T23:27:06.440Z,13.16
2018-07-01T23:28:06.347Z,13.19
2018-07-01T23:29:59.071Z,13.24
2018-07-01T23:30:58.979Z,13.19
2018-07-01T23:32:51.753Z,13.17
2018-07-01T23:33:51.669Z,13.05
2018-07-01T23:35:44.498Z,13.16
2018-07-01T23:36:44.372Z,13.21
2018-07-01T23:38:37.762Z,13.05
2018-07-01T23:39:37.630Z,13.06
2018-07-01T23:41:30.411Z,13.02
2018-07-01T23:42:30.286Z,13.04
2018-07-01T23:44:23.041Z,12.96
2018-07-01T23:45:22.929Z,12.96
2018-07-01T23:47:15.805Z,12.96
2018-07-01T23:48:15.738Z,13.06
2018-07-01T23:50:08.524Z,13.08
2018-07-01T23:51:08.481Z,13.09
2018-07-01T23:53:01.302Z,12.98
2018-07-01T23:54:01.221Z,12.86
2018-07-01T23:55:54.030Z,12.88
2018-07-01T23:56:53.958Z,12.90
2018-07-01T23:58:46.800Z,12.86
2018-07-01T23:59:46.689Z,12.73
